createdAt,value
2023-02-06T00:01:52.289Z,13.17
2023-02-06T00:04:54.858Z,12.53
2023-02-06T00:07:57.710Z,13.13
2023-02-06T00:11:04.865Z,12.47
2023-02-06T00:14:07.865Z,12.37
2023-02-06T00:17:11.792Z,13.53
2023-02-06T00:20:14.989Z,13.63
2023-02-06T00:23:17.642Z,12.23
2023-02-06T00:26:20.547Z,11.77
2023-02-06T00:29:23.132Z,12.13
2023-02-06T00:32:27.217Z,13.00
2023-02-06T00:35:29.830Z,11.33
2023-02-06T00:38:32.557Z,12.00
2023-02-06T00:41:35.128Z,11.57
2023-02-06T00:44:37.718Z,10.73
2023-02-06T00:47:41.690Z,11.10
2023-02-06T00:50:44.287Z,11.03
2023-02-06T00:53:47.780Z,11.33
2023-02-06T00:56:51.641Z,10.20
2023-02-06T00:59:54.655Z,10.43
2023-02-06T01:02:58.690Z,10.40
2023-02-06T01:06:01.303Z,10.47
2023-02-06T01:09:04.220Z,10.13
2023-02-06T01:12:07.358Z,10.60
2023-02-06T01:15:12.347Z,10.30
2023-02-06T01:18:16.287Z,9.97
2023-02-06T01:21:21.551Z,9.77
2023-02-06T01:24:24.202Z,10.00
2023-02-06T01:27:27.052Z,9.00
2023-02-06T01:30:29.660Z,9.57
2023-02-06T01:33:33.613Z,9.37
2023-02-06T01:36:36.225Z,9.43
2023-02-06T01:39:38.908Z,8.90
2023-02-06T01:42:41.801Z,9.50
2023-02-06T01:45:46.290Z,8.60
2023-02-06T01:48:52.674Z,9.33
2023-02-06T01:51:59.514Z,8.33
2023-02-06T01:55:04.779Z,9.60
2023-02-06T01:58:09.824Z,8.63
2023-02-06T02:01:12.804Z,8.97
2023-02-06T02:04:20.031Z,8.77
2023-02-06T02:07:27.125Z,8.50
2023-02-06T02:10:30.787Z,10.13
2023-02-06T02:13:34.259Z,8.50
2023-02-06T02:16:47.846Z,8.77
2023-02-06T02:20:27.072Z,8.53
2023-02-06T02:23:37.588Z,8.63
2023-02-06T02:27:11.275Z,9.00
2023-02-06T02:30:55.699Z,8.50
2023-02-06T02:34:21.940Z,7.70
2023-02-06T02:37:33.322Z,8.10
2023-02-06T02:40:46.126Z,7.37
2023-02-06T02:43:54.932Z,7.87
2023-02-06T02:47:02.957Z,7.77
2023-02-06T02:50:07.274Z,7.73
2023-02-06T02:53:13.265Z,8.10
2023-02-06T02:56:18.960Z,8.13
2023-02-06T02:59:26.007Z,7.83
2023-02-06T03:02:33.371Z,7.37
2023-02-06T03:05:41.281Z,8.03
2023-02-06T03:08:51.005Z,7.07
2023-02-06T03:12:00.453Z,6.93
2023-02-06T03:15:09.138Z,7.07
2023-02-06T03:18:14.671Z,6.70
2023-02-06T03:21:20.562Z,6.60
2023-02-06T03:24:27.009Z,6.33
2023-02-06T03:27:31.261Z,6.23
2023-02-06T03:30:35.450Z,5.90
2023-02-06T03:33:46.834Z,5.80
2023-02-06T03:36:50.757Z,6.37
2023-02-06T03:39:55.465Z,6.03
2023-02-06T03:43:01.976Z,6.43
2023-02-06T03:46:07.465Z,5.83
2023-02-06T03:49:14.568Z,5.97
2023-02-06T03:52:21.819Z,5.80
2023-02-06T03:55:26.206Z,5.90
2023-02-06T03:58:28.852Z,5.60
2023-02-06T04:01:31.996Z,6.03
2023-02-06T04:04:38.880Z,5.57
2023-02-06T04:07:41.490Z,5.33
2023-02-06T04:10:45.427Z,5.07
2023-02-06T04:13:47.989Z,5.43
2023-02-06T04:16:50.612Z,5.00
2023-02-06T04:19:53.209Z,4.70
2023-02-06T04:22:55.818Z,5.13
2023-02-06T04:25:59.749Z,5.83
2023-02-06T04:29:02.366Z,4.70
2023-02-06T04:32:05.562Z,4.93
2023-02-06T04:35:08.760Z,4.90
2023-02-06T04:38:11.380Z,4.87
2023-02-06T04:41:15.520Z,4.73
2023-02-06T04:44:18.274Z,5.00
2023-02-06T04:47:20.826Z,5.00
2023-02-06T04:50:23.406Z,4.97
2023-02-06T04:53:25.979Z,4.23
2023-02-06T04:56:29.953Z,4.90
2023-02-06T04:59:32.559Z,4.40
2023-02-06T05:02:37.449Z,4.10
2023-02-06T05:05:40.216Z,5.17
2023-02-06T05:08:42.991Z,3.80
2023-02-06T05:11:46.945Z,4.40
2023-02-06T05:14:49.523Z,4.33
2023-02-06T05:17:52.130Z,4.90
2023-02-06T05:20:54.709Z,4.70
2023-02-06T05:23:57.335Z,4.80
2023-02-06T05:27:01.275Z,4.47
2023-02-06T05:30:03.913Z,4.90
2023-02-06T05:33:06.510Z,4.30
2023-02-06T05:36:09.667Z,5.20
2023-02-06T05:39:12.251Z,4.30
2023-02-06T05:42:16.195Z,4.50
2023-02-06T05:45:18.992Z,4.83
2023-02-06T05:48:21.701Z,4.27
2023-02-06T05:51:24.304Z,4.13
2023-02-06T05:54:27.061Z,5.60
2023-02-06T05:57:31.126Z,10.37
2023-02-06T06:00:33.833Z,4.77
2023-02-06T06:03:38.117Z,4.47
2023-02-06T06:06:40.728Z,5.53
2023-02-06T06:09:43.310Z,5.10
2023-02-06T06:12:47.271Z,4.93
2023-02-06T06:15:51.993Z,4.90
2023-02-06T06:18:55.659Z,4.63
2023-02-06T06:21:58.503Z,4.90
2023-02-06T06:25:01.153Z,5.17
2023-02-06T06:28:05.531Z,5.07
2023-02-06T06:31:12.607Z,5.57
2023-02-06T06:34:15.355Z,4.87
2023-02-06T06:37:17.944Z,4.57
2023-02-06T06:40:20.661Z,5.17
2023-02-06T06:43:24.631Z,5.33
2023-02-06T06:46:27.565Z,5.07
2023-02-06T06:49:30.158Z,4.40
2023-02-06T06:52:32.786Z,4.77
2023-02-06T06:55:35.769Z,5.83
2023-02-06T06:58:39.994Z,5.33
2023-02-06T07:01:42.582Z,5.50
2023-02-06T07:04:45.187Z,5.40
2023-02-06T07:07:47.775Z,4.67
2023-02-06T07:10:50.351Z,4.77
2023-02-06T07:13:54.274Z,5.60
2023-02-06T07:16:57.176Z,6.20
2023-02-06T07:19:59.840Z,5.47
2023-02-06T07:23:02.439Z,4.67
2023-02-06T07:26:05.435Z,4.43
2023-02-06T07:29:09.397Z,4.00
2023-02-06T07:32:12.516Z,4.77
2023-02-06T07:35:15.813Z,4.77
2023-02-06T07:38:18.409Z,4.40
2023-02-06T07:41:21.035Z,4.53
2023-02-06T07:44:24.967Z,5.40
2023-02-06T07:47:27.583Z,4.60
2023-02-06T07:50:30.217Z,4.53
2023-02-06T07:53:32.876Z,5.70
2023-02-06T07:56:35.553Z,5.50
2023-02-06T07:59:39.472Z,4.90
2023-02-06T08:02:42.471Z,4.30
2023-02-06T08:05:45.053Z,4.20
2023-02-06T08:08:48.229Z,5.27
2023-02-06T08:11:50.781Z,5.10
2023-02-06T08:14:54.722Z,4.83
2023-02-06T08:17:57.306Z,5.10
2023-02-06T08:21:03.635Z,5.63
2023-02-06T08:24:06.509Z,5.60
2023-02-06T08:27:09.074Z,5.33
2023-02-06T08:30:14.442Z,5.93
2023-02-06T08:33:17.043Z,6.33
2023-02-06T08:36:21.154Z,5.63
2023-02-06T08:39:23.717Z,6.20
2023-02-06T08:42:26.361Z,6.53
2023-02-06T08:45:30.312Z,7.63
2023-02-06T08:48:32.881Z,7.03
2023-02-06T08:51:36.696Z,6.80
2023-02-06T08:54:39.308Z,6.20
2023-02-06T08:57:41.919Z,6.87
2023-02-06T09:00:45.876Z,6.23
2023-02-06T09:03:49.170Z,6.20
2023-02-06T09:06:52.111Z,6.77
2023-02-06T09:09:54.728Z,5.67
2023-02-06T09:12:57.618Z,7.13
2023-02-06T09:16:01.721Z,6.33
2023-02-06T09:19:04.790Z,5.60
2023-02-06T09:22:07.412Z,5.20
2023-02-06T09:25:09.976Z,5.33
2023-02-06T09:28:12.823Z,6.40
2023-02-06T09:31:16.886Z,6.57
2023-02-06T09:34:19.659Z,5.43
2023-02-06T09:37:23.370Z,5.27
2023-02-06T09:40:30.335Z,5.20
2023-02-06T09:43:34.805Z,5.80
2023-02-06T09:46:48.435Z,5.40
2023-02-06T09:49:54.024Z,6.07
2023-02-06T09:53:06.706Z,5.60
2023-02-06T09:56:20.815Z,6.40
2023-02-06T09:59:30.017Z,4.93
2023-02-06T10:02:50.369Z,5.03
2023-02-06T10:06:02.477Z,5.17
2023-02-06T10:09:10.876Z,4.33
2023-02-06T10:12:19.067Z,4.00
2023-02-06T10:15:30.519Z,4.17
2023-02-06T10:18:40.289Z,4.10
2023-02-06T10:21:47.635Z,3.80
2023-02-06T10:25:07.100Z,3.77
2023-02-06T10:28:23.490Z,3.37
2023-02-06T10:31:47.703Z,4.70
2023-02-06T10:35:14.600Z,4.17
2023-02-06T10:38:40.123Z,4.20
2023-02-06T10:41:49.822Z,4.17
2023-02-06T10:45:13.189Z,3.77
2023-02-06T10:48:29.239Z,3.43
2023-02-06T10:51:36.502Z,3.33
2023-02-06T10:54:42.864Z,4.03
2023-02-06T10:57:47.088Z,3.70
2023-02-06T11:00:52.104Z,3.93
2023-02-06T11:04:00.904Z,7.07
2023-02-06T11:07:09.390Z,3.60
2023-02-06T11:10:15.162Z,4.00
2023-02-06T11:13:26.754Z,4.17
2023-02-06T11:16:30.874Z,4.73
2023-02-06T11:19:36.833Z,4.00
2023-02-06T11:22:51.291Z,4.00
2023-02-06T11:26:06.264Z,8.63
2023-02-06T11:29:15.375Z,3.80
2023-02-06T11:32:35.951Z,4.30
2023-02-06T11:35:41.160Z,4.03
2023-02-06T11:38:55.600Z,3.83
2023-02-06T11:42:03.471Z,4.13
2023-02-06T11:45:24.413Z,4.50
2023-02-06T11:48:37.024Z,3.97
2023-02-06T11:51:48.797Z,3.60
2023-02-06T11:55:01.536Z,4.20
2023-02-06T11:58:21.041Z,3.73
2023-02-06T12:01:23.666Z,3.63
2023-02-06T12:04:31.565Z,3.90
2023-02-06T12:07:40.414Z,3.33
2023-02-06T12:10:53.839Z,4.03
2023-02-06T12:14:02.190Z,3.87
2023-02-06T12:17:10.908Z,3.87
2023-02-06T12:20:19.727Z,4.87
2023-02-06T12:23:27.142Z,5.00
2023-02-06T12:26:34.473Z,4.87
2023-02-06T12:29:41.702Z,5.27
2023-02-06T12:32:50.191Z,5.30
2023-02-06T12:35:57.681Z,4.73
2023-02-06T12:39:03.570Z,4.93
2023-02-06T12:42:23.202Z,5.00
2023-02-06T12:45:37.533Z,3.80
2023-02-06T12:48:45.109Z,4.57
2023-02-06T12:51:54.735Z,4.83
2023-02-06T12:55:08.591Z,5.00
2023-02-06T12:58:28.891Z,5.27
2023-02-06T13:01:46.535Z,4.50
2023-02-06T13:04:50.092Z,4.40
2023-02-06T13:07:56.523Z,4.73
2023-02-06T13:11:05.848Z,4.80
2023-02-06T13:14:19.622Z,4.40
2023-02-06T13:17:24.785Z,4.20
2023-02-06T13:20:28.118Z,5.00
2023-02-06T13:23:30.709Z,4.13
2023-02-06T13:27:02.908Z,4.30
2023-02-06T13:30:50.581Z,3.80
2023-02-06T13:33:56.126Z,4.03
2023-02-06T13:37:22.641Z,3.87
2023-02-06T13:40:32.099Z,3.40
2023-02-06T13:43:35.649Z,3.60
2023-02-06T13:47:12.859Z,3.50
2023-02-06T13:50:39.085Z,3.23
2023-02-06T13:54:22.941Z,3.80
2023-02-06T13:57:39.648Z,3.30
2023-02-06T14:00:46.067Z,3.73
2023-02-06T14:03:51.679Z,3.70
2023-02-06T14:07:23.041Z,4.10
2023-02-06T14:10:54.620Z,3.53
2023-02-06T14:14:17.770Z,3.47
2023-02-06T14:17:37.023Z,3.40
2023-02-06T14:20:49.926Z,2.93
2023-02-06T14:24:12.208Z,3.63
2023-02-06T14:27:29.574Z,3.57
2023-02-06T14:30:38.568Z,3.27
2023-02-06T14:33:55.935Z,3.83
2023-02-06T14:37:17.838Z,3.17
2023-02-06T14:40:23.966Z,3.10
2023-02-06T14:43:30.544Z,2.53
2023-02-06T14:46:33.902Z,3.30
2023-02-06T14:49:38.862Z,2.80
2023-02-06T14:52:42.960Z,2.90
2023-02-06T14:55:46.968Z,3.47
2023-02-06T14:58:51.241Z,3.97
2023-02-06T15:01:56.053Z,3.70
2023-02-06T15:04:59.857Z,3.10
2023-02-06T15:08:06.864Z,3.53
2023-02-06T15:11:20.618Z,3.37
2023-02-06T15:14:25.993Z,3.90
2023-02-06T15:17:28.589Z,3.43
2023-02-06T15:20:36.025Z,3.30
2023-02-06T15:23:55.521Z,3.77
2023-02-06T15:27:05.332Z,3.33
2023-02-06T15:30:20.624Z,3.80
2023-02-06T15:33:25.176Z,3.63
2023-02-06T15:36:32.358Z,3.47
2023-02-06T15:39:36.429Z,3.70
2023-02-06T15:42:39.333Z,4.03
2023-02-06T15:45:43.948Z,3.43
2023-02-06T15:48:51.640Z,3.93
2023-02-06T15:51:55.888Z,4.07
2023-02-06T15:55:00.858Z,3.77
2023-02-06T15:58:05.789Z,3.73
2023-02-06T16:01:16.413Z,3.70
2023-02-06T16:04:24.120Z,3.83
2023-02-06T16:07:30.650Z,3.47
2023-02-06T16:10:38.674Z,3.30
2023-02-06T16:13:42.084Z,4.37
2023-02-06T16:16:57.114Z,3.73
2023-02-06T16:20:02.583Z,2.80
2023-02-06T16:23:25.513Z,3.37
2023-02-06T16:26:31.699Z,3.27
2023-02-06T16:29:34.420Z,3.10
2023-02-06T16:32:37.075Z,2.90
2023-02-06T16:35:39.657Z,2.90
2023-02-06T16:38:48.271Z,3.10
2023-02-06T16:41:55.324Z,2.77
2023-02-06T16:45:01.512Z,2.93
2023-02-06T16:48:04.360Z,3.10
2023-02-06T16:51:07.441Z,3.00
2023-02-06T16:54:18.638Z,2.90
2023-02-06T16:57:27.407Z,3.00
2023-02-06T17:00:32.055Z,3.33
2023-02-06T17:03:34.770Z,3.77
2023-02-06T17:06:37.926Z,3.37
2023-02-06T17:09:40.914Z,3.43
2023-02-06T17:12:45.269Z,7.27
2023-02-06T17:15:48.885Z,13.37
2023-02-06T17:18:52.321Z,17.13
2023-02-06T17:21:54.906Z,34.80
2023-02-06T17:24:57.511Z,40.93
2023-02-06T17:28:02.213Z,40.27
2023-02-06T17:31:05.086Z,34.50
2023-02-06T17:34:07.795Z,30.93
2023-02-06T17:37:20.431Z,25.70
2023-02-06T17:40:25.276Z,19.50
2023-02-06T17:43:29.587Z,16.37
2023-02-06T17:46:32.628Z,14.53
2023-02-06T17:49:35.331Z,9.93
2023-02-06T17:52:37.925Z,7.93
2023-02-06T17:55:40.730Z,6.80
2023-02-06T17:58:44.882Z,6.43
2023-02-06T18:01:47.507Z,6.10
2023-02-06T18:04:51.003Z,5.73
2023-02-06T18:07:53.730Z,7.20
2023-02-06T18:10:56.845Z,7.80
2023-02-06T18:14:00.782Z,7.40
2023-02-06T18:17:03.801Z,7.47
2023-02-06T18:20:07.083Z,7.53
2023-02-06T18:23:09.690Z,6.90
2023-02-06T18:26:12.892Z,6.80
2023-02-06T18:29:16.861Z,6.00
2023-02-06T18:32:19.995Z,5.97
2023-02-06T18:35:22.664Z,6.43
2023-02-06T18:38:25.488Z,6.20
2023-02-06T18:41:45.490Z,5.90
2023-02-06T18:44:49.439Z,6.13
2023-02-06T18:47:52.446Z,9.57
2023-02-06T18:50:56.495Z,7.17
2023-02-06T18:54:01.554Z,6.30
2023-02-06T18:57:04.361Z,6.20
2023-02-06T19:00:10.510Z,5.90
2023-02-06T19:03:13.106Z,6.20
2023-02-06T19:06:20.115Z,6.13
2023-02-06T19:09:22.792Z,6.60
2023-02-06T19:12:27.915Z,7.17
2023-02-06T19:15:34.290Z,7.37
2023-02-06T19:18:41.609Z,7.97
2023-02-06T19:21:45.234Z,7.10
2023-02-06T19:24:47.903Z,6.53
2023-02-06T19:27:50.539Z,7.37
2023-02-06T19:30:54.527Z,6.20
2023-02-06T19:34:00.793Z,6.10
2023-02-06T19:37:03.509Z,5.53
2023-02-06T19:40:06.727Z,5.97
2023-02-06T19:43:09.323Z,6.23
2023-02-06T19:46:14.968Z,6.13
2023-02-06T19:49:17.567Z,5.80
2023-02-06T19:52:20.816Z,5.47
2023-02-06T19:55:23.398Z,6.03
2023-02-06T19:58:28.930Z,5.70
2023-02-06T20:01:32.972Z,5.70
2023-02-06T20:04:37.761Z,5.83
2023-02-06T20:07:40.477Z,6.83
2023-02-06T20:10:43.131Z,6.10
2023-02-06T20:13:47.140Z,6.40
2023-02-06T20:16:51.318Z,6.47
2023-02-06T20:19:54.372Z,6.93
2023-02-06T20:22:56.959Z,6.97
2023-02-06T20:26:02.538Z,6.70
2023-02-06T20:29:06.512Z,6.57
2023-02-06T20:32:11.926Z,7.13
2023-02-06T20:35:14.564Z,6.90
2023-02-06T20:38:17.176Z,6.30
2023-02-06T20:41:21.466Z,6.70
2023-02-06T20:44:24.172Z,6.37
2023-02-06T20:47:28.364Z,6.47
2023-02-06T20:50:31.036Z,6.40
2023-02-06T20:53:33.661Z,6.20
2023-02-06T20:56:36.242Z,5.57
2023-02-06T20:59:39.285Z,5.00
2023-02-06T21:02:43.322Z,5.90
2023-02-06T21:05:46.059Z,6.53
2023-02-06T21:08:50.084Z,6.30
2023-02-06T21:11:52.696Z,6.70
2023-02-06T21:14:55.697Z,6.13
2023-02-06T21:17:59.689Z,5.70
2023-02-06T21:21:09.250Z,5.93
2023-02-06T21:24:12.367Z,6.00
2023-02-06T21:27:14.977Z,6.40
2023-02-06T21:30:17.785Z,6.00
2023-02-06T21:33:21.711Z,6.37
2023-02-06T21:36:24.348Z,6.43
2023-02-06T21:39:28.661Z,6.07
2023-02-06T21:42:31.240Z,6.10
2023-02-06T21:45:33.835Z,6.00
2023-02-06T21:48:37.991Z,5.37
2023-02-06T21:51:40.557Z,5.30
2023-02-06T21:54:43.156Z,5.83
2023-02-06T21:57:45.745Z,5.90
2023-02-06T22:00:48.688Z,5.80
2023-02-06T22:03:53.305Z,5.47
2023-02-06T22:06:55.937Z,6.07
2023-02-06T22:09:58.501Z,6.00
2023-02-06T22:13:01.109Z,5.73
2023-02-06T22:16:03.704Z,5.80
2023-02-06T22:19:08.368Z,5.93
2023-02-06T22:22:12.458Z,5.90
2023-02-06T22:25:15.076Z,5.80
2023-02-06T22:28:17.730Z,6.10
2023-02-06T22:31:22.345Z,6.10
2023-02-06T22:34:26.319Z,5.80
2023-02-06T22:37:31.595Z,6.10
2023-02-06T22:40:34.253Z,6.27
2023-02-06T22:43:38.867Z,7.07
2023-02-06T22:46:41.517Z,7.40
2023-02-06T22:49:45.793Z,7.20
2023-02-06T22:53:14.110Z,6.90
2023-02-06T22:56:37.132Z,6.83
2023-02-06T22:59:40.113Z,6.33
2023-02-06T23:02:42.707Z,7.30
2023-02-06T23:05:46.640Z,7.07
2023-02-06T23:08:49.283Z,6.77
2023-02-06T23:11:52.497Z,7.30
2023-02-06T23:14:55.247Z,6.77
2023-02-06T23:17:57.823Z,6.37
2023-02-06T23:21:03.659Z,6.33
2023-02-06T23:24:08.311Z,6.70
2023-02-06T23:27:10.939Z,6.77
2023-02-06T23:30:14.393Z,6.20
2023-02-06T23:33:17.081Z,6.13
2023-02-06T23:36:25.970Z,6.40
2023-02-06T23:39:28.563Z,6.30
2023-02-06T23:42:31.149Z,6.10
2023-02-06T23:45:34.384Z,6.53
2023-02-06T23:48:37.812Z,6.27
2023-02-06T23:51:41.796Z,6.27
2023-02-06T23:54:44.408Z,6.17
2023-02-06T23:57:47.205Z,6.20
